Time;durP1;ratioP1;P1;durP2;ratioP2;P2;SDS_P1;SDS_P2;PMS_P1;PMS_P2;Temp;Humidity;BMP_temperature;BMP_pressure;BME280_temperature;BME280_humidity;BME280_pressure;Samples;Min_cycle;Max_cycle;Signal;HPM_P1;HPM_P2
2023/12/26 00:01:03;;;;;;;1.10;0.97;;;9.70;99.90;;;;;;5063059;28;20934;-58
2023/12/26 00:03:30;;;;;;;1.40;1.30;;;9.70;99.90;;;;;;5065236;28;20513;-60
2023/12/26 00:05:57;;;;;;;0.80;0.80;;;9.70;99.90;;;;;;5066048;28;20461;-60
2023/12/26 00:08:24;;;;;;;1.10;1.10;;;9.70;99.90;;;;;;5060958;28;20481;-59
2023/12/26 00:10:51;;;;;;;1.60;1.50;;;9.70;99.90;;;;;;5063281;28;20488;-58
2023/12/26 00:13:19;;;;;;;0.93;0.93;;;9.70;99.90;;;;;;5072521;28;20480;-59
2023/12/26 00:15:46;;;;;;;1.37;1.37;;;9.70;99.90;;;;;;5062486;28;20848;-60
2023/12/26 00:18:13;;;;;;;1.30;1.20;;;9.60;99.90;;;;;;5064836;28;20499;-59
2023/12/26 00:20:43;;;;;;;3.07;2.30;;;9.60;99.90;;;;;;5062893;28;20490;-58
2023/12/26 00:23:10;;;;;;;1.27;1.27;;;9.60;99.90;;;;;;5067693;28;20444;-59
2023/12/26 00:25:37;;;;;;;1.47;1.47;;;9.60;99.90;;;;;;5063543;28;20448;-59
2023/12/26 00:28:04;;;;;;;3.37;1.47;;;9.60;99.90;;;;;;5072269;28;20483;-58
2023/12/26 00:30:33;;;;;;;2.80;1.60;;;9.60;99.90;;;;;;5072082;28;20487;-57
2023/12/26 00:32:58;;;;;;;2.50;1.40;;;9.60;99.90;;;;;;5071331;28;20452;-60
2023/12/26 00:35:25;;;;;;;1.40;1.30;;;9.60;99.90;;;;;;5072627;28;20874;-60
2023/12/26 00:37:52;;;;;;;2.10;1.30;;;9.60;99.90;;;;;;5069569;28;21001;-59
2023/12/26 00:40:19;;;;;;;1.47;1.37;;;9.50;99.90;;;;;;5060695;28;20461;-59
2023/12/26 00:42:46;;;;;;;1.50;1.40;;;9.50;99.90;;;;;;5061455;28;20444;-58
2023/12/26 00:45:14;;;;;;;2.30;2.10;;;9.50;99.90;;;;;;5062818;28;20499;-59
2023/12/26 00:47:42;;;;;;;2.23;2.10;;;9.50;99.90;;;;;;5064278;28;21037;-56
2023/12/26 00:50:11;;;;;;;1.80;1.70;;;9.50;99.90;;;;;;5067091;28;21101;-59
2023/12/26 00:52:38;;;;;;;2.07;1.83;;;9.50;99.90;;;;;;5061249;28;20478;-60
2023/12/26 00:55:07;;;;;;;2.80;2.60;;;9.50;99.90;;;;;;5064717;28;20448;-59
2023/12/26 00:57:34;;;;;;;2.20;1.90;;;9.40;99.90;;;;;;5071318;28;20464;-59
2023/12/26 01:00:03;;;;;;;2.23;2.13;;;9.40;99.90;;;;;;5062276;28;20194;-59
2023/12/26 01:02:30;;;;;;;4.80;2.30;;;9.40;99.90;;;;;;5063491;28;20452;-59
2023/12/26 01:04:59;;;;;;;2.83;2.63;;;9.40;99.90;;;;;;5068945;28;20471;-59
2023/12/26 01:07:26;;;;;;;2.17;1.80;;;9.30;99.90;;;;;;5070113;28;20535;-59
2023/12/26 01:09:54;;;;;;;2.50;2.40;;;9.30;99.90;;;;;;5058379;28;20480;-60
2023/12/26 01:12:21;;;;;;;3.87;3.10;;;9.30;99.90;;;;;;5069330;28;20447;-60
2023/12/26 01:14:48;;;;;;;3.60;3.40;;;9.30;99.90;;;;;;5068669;28;20487;-60
2023/12/26 01:17:15;;;;;;;3.83;2.95;;;9.20;99.90;;;;;;5069026;28;20225;-60
2023/12/26 01:19:42;;;;;;;3.20;2.90;;;9.20;99.90;;;;;;5061419;28;20205;-59
2023/12/26 01:22:10;;;;;;;3.30;3.00;;;9.20;99.90;;;;;;5070126;28;20448;-59
2023/12/26 01:24:37;;;;;;;3.53;3.15;;;9.10;99.90;;;;;;5071115;28;20209;-60
2023/12/26 01:27:04;;;;;;;3.07;2.87;;;9.10;99.90;;;;;;5066107;28;20690;-60
2023/12/26 01:29:31;;;;;;;3.42;3.13;;;9.10;99.90;;;;;;5065920;28;20498;-59
2023/12/26 01:31:58;;;;;;;4.05;3.30;;;9.00;99.90;;;;;;5060373;28;20258;-59
2023/12/26 01:34:25;;;;;;;4.15;3.85;;;9.00;99.90;;;;;;5059559;28;21252;-59
2023/12/26 01:36:52;;;;;;;3.08;2.80;;;9.00;99.90;;;;;;5071125;28;20225;-60
2023/12/26 01:39:20;;;;;;;3.20;3.00;;;9.00;99.90;;;;;;5067967;28;20198;-59
2023/12/26 01:41:47;;;;;;;3.15;2.95;;;9.00;99.90;;;;;;5066856;28;20230;-58
2023/12/26 01:44:14;;;;;;;3.42;3.13;;;8.90;99.90;;;;;;5063816;28;20238;-57
2023/12/26 01:46:41;;;;;;;3.90;3.40;;;8.90;99.90;;;;;;5068712;28;20336;-59
2023/12/26 01:49:09;;;;;;;4.00;3.60;;;9.00;99.90;;;;;;5070574;28;20513;-59
2023/12/26 01:51:37;;;;;;;5.30;2.78;;;8.90;99.90;;;;;;5068569;28;20226;-59
2023/12/26 01:54:04;;;;;;;2.90;2.70;;;8.90;99.90;;;;;;5068223;28;20251;-58
2023/12/26 01:56:32;;;;;;;2.88;2.67;;;8.90;99.90;;;;;;5065352;28;20218;-60
2023/12/26 01:58:59;;;;;;;3.00;2.80;;;8.90;99.90;;;;;;5059729;28;20236;-59
2023/12/26 02:01:26;;;;;;;3.15;2.90;;;9.00;99.90;;;;;;5062042;28;20946;-55
2023/12/26 02:03:54;;;;;;;4.20;4.00;;;8.90;99.90;;;;;;5068778;28;20229;-57
2023/12/26 02:06:22;;;;;;;4.63;3.37;;;8.90;99.90;;;;;;5070166;28;20226;-58
2023/12/26 02:08:50;;;;;;;2.80;2.60;;;8.90;99.90;;;;;;5069174;28;20472;-58
2023/12/26 02:11:17;;;;;;;4.30;4.00;;;8.90;99.90;;;;;;5070400;28;20487;-58
2023/12/26 02:13:45;;;;;;;2.87;2.67;;;8.90;99.90;;;;;;5058878;28;20252;-59
2023/12/26 02:16:17;;;;;;;2.73;2.53;;;8.90;99.90;;;;;;5068949;28;20491;-58
2023/12/26 02:18:44;;;;;;;3.38;2.30;;;8.90;99.90;;;;;;5058484;28;20704;-57
2023/12/26 02:21:11;;;;;;;3.90;2.15;;;8.90;99.90;;;;;;5068612;28;20229;-58
2023/12/26 02:23:38;;;;;;;1.65;1.55;;;8.90;99.90;;;;;;5059255;28;20343;-58
2023/12/26 02:26:08;;;;;;;1.85;1.73;;;8.90;99.90;;;;;;5065528;28;20225;-59
2023/12/26 02:28:36;;;;;;;1.92;1.83;;;8.90;99.90;;;;;;5066024;28;20210;-57
2023/12/26 02:31:04;;;;;;;2.05;1.95;;;8.90;99.90;;;;;;5062832;28;20221;-58
2023/12/26 02:33:31;;;;;;;1.63;1.57;;;8.90;99.90;;;;;;5068504;28;20286;-58
2023/12/26 02:35:59;;;;;;;2.63;1.50;;;8.90;99.90;;;;;;5064881;28;20515;-58
2023/12/26 02:38:26;;;;;;;1.38;1.35;;;8.80;99.90;;;;;;5059830;28;20269;-58
2023/12/26 02:40:53;;;;;;;1.92;1.80;;;8.80;99.90;;;;;;5068597;28;20194;-58
2023/12/26 02:43:22;;;;;;;1.40;1.30;;;8.90;99.90;;;;;;5068375;28;20218;-58
2023/12/26 02:45:49;;;;;;;1.57;1.47;;;8.90;99.90;;;;;;5068410;28;20460;-59
2023/12/26 02:48:16;;;;;;;2.45;1.60;;;8.90;99.90;;;;;;5067818;28;20916;-59
2023/12/26 02:50:43;;;;;;;3.30;1.70;;;8.80;99.90;;;;;;5056185;28;20309;-58
2023/12/26 02:53:10;;;;;;;1.43;1.33;;;8.90;99.90;;;;;;5051055;28;20468;-58
2023/12/26 02:55:39;;;;;;;1.20;1.10;;;8.80;99.90;;;;;;5050927;28;20444;-59
2023/12/26 02:58:06;;;;;;;2.38;1.60;;;8.80;99.90;;;;;;5069498;28;20456;-58
2023/12/26 03:00:34;;;;;;;3.27;1.20;;;8.90;99.90;;;;;;5071081;28;20202;-55
2023/12/26 03:03:01;;;;;;;3.35;1.45;;;8.90;99.90;;;;;;5071029;28;20448;-57
2023/12/26 03:05:28;;;;;;;1.63;1.52;;;8.90;99.90;;;;;;5070735;28;20224;-59
2023/12/26 03:07:55;;;;;;;2.70;1.42;;;8.80;99.90;;;;;;5071234;28;20582;-58
2023/12/26 03:10:22;;;;;;;2.53;1.20;;;8.90;99.90;;;;;;5070733;28;20307;-57
2023/12/26 03:12:49;;;;;;;1.53;1.43;;;8.80;99.90;;;;;;5071216;28;20877;-59
2023/12/26 03:15:16;;;;;;;1.33;1.23;;;8.80;99.90;;;;;;5050735;28;20449;-58
2023/12/26 03:17:45;;;;;;;1.35;1.13;;;8.80;99.90;;;;;;5049607;28;20472;-59
2023/12/26 03:20:12;;;;;;;3.15;2.78;;;8.90;99.90;;;;;;5050588;28;20203;-58
2023/12/26 03:22:40;;;;;;;1.35;1.15;;;8.90;99.90;;;;;;5050983;28;20206;-59
2023/12/26 03:25:07;;;;;;;1.20;1.20;;;8.90;99.90;;;;;;5051069;28;20210;-58
2023/12/26 03:27:34;;;;;;;1.65;1.00;;;8.90;99.90;;;;;;5050541;28;20538;-59
2023/12/26 03:30:01;;;;;;;0.88;0.88;;;8.90;99.90;;;;;;5050502;28;20267;-59
2023/12/26 03:32:28;;;;;;;1.23;1.07;;;8.90;99.90;;;;;;5050609;28;20231;-59
2023/12/26 03:34:56;;;;;;;1.00;1.00;;;8.90;99.90;;;;;;5052238;28;20448;-54
2023/12/26 03:37:23;;;;;;;0.73;0.73;;;8.90;99.90;;;;;;5054567;28;20465;-58
2023/12/26 03:39:50;;;;;;;2.08;1.48;;;8.90;99.90;;;;;;5054262;28;20206;-57
2023/12/26 03:42:17;;;;;;;1.20;0.95;;;8.90;99.90;;;;;;5054519;28;20291;-59
2023/12/26 03:44:46;;;;;;;4.33;1.67;;;8.90;99.90;;;;;;5054170;28;20210;-58
2023/12/26 03:47:13;;;;;;;1.20;1.10;;;8.90;99.90;;;;;;5054169;28;21046;-59
2023/12/26 03:49:40;;;;;;;3.70;1.30;;;8.90;99.90;;;;;;5054248;28;20448;-58
2023/12/26 03:52:09;;;;;;;1.67;1.27;;;8.90;99.90;;;;;;5054274;28;20708;-57
2023/12/26 03:54:36;;;;;;;1.20;1.13;;;8.90;99.90;;;;;;5054170;28;20681;-56
2023/12/26 03:57:04;;;;;;;1.43;1.17;;;8.90;99.90;;;;;;5054022;28;20632;-59
2023/12/26 03:59:31;;;;;;;2.13;2.03;;;8.90;99.90;;;;;;5053832;28;20449;-55
2023/12/26 04:01:58;;;;;;;2.43;1.50;;;8.90;99.90;;;;;;5054105;28;20477;-57
2023/12/26 04:04:25;;;;;;;1.50;1.40;;;8.90;99.90;;;;;;5053913;28;20536;-59
2023/12/26 04:06:52;;;;;;;3.40;1.77;;;9.00;99.90;;;;;;5053891;28;20226;-59
2023/12/26 04:09:20;;;;;;;2.30;1.77;;;9.00;99.90;;;;;;5053803;28;20211;-58
2023/12/26 04:11:46;;;;;;;1.65;1.55;;;9.00;99.90;;;;;;5053683;28;20484;-58
2023/12/26 04:14:13;;;;;;;1.73;1.60;;;9.00;99.90;;;;;;5054036;28;20210;-57
2023/12/26 04:16:40;;;;;;;1.37;1.27;;;9.00;99.90;;;;;;5053596;28;20227;-56
2023/12/26 04:19:07;;;;;;;3.03;1.80;;;9.00;99.90;;;;;;5053699;28;20890;-57
2023/12/26 04:21:34;;;;;;;3.20;1.73;;;9.00;99.90;;;;;;5053712;28;20441;-59
2023/12/26 04:24:01;;;;;;;1.90;1.80;;;9.00;99.90;;;;;;5053669;28;20206;-58
2023/12/26 04:26:29;;;;;;;1.50;1.33;;;9.00;99.90;;;;;;5053259;28;20480;-58
2023/12/26 04:28:56;;;;;;;4.87;1.87;;;9.00;99.90;;;;;;5053537;28;20549;-58
2023/12/26 04:31:23;;;;;;;6.83;1.87;;;9.10;99.90;;;;;;5053610;28;20559;-56
2023/12/26 04:33:50;;;;;;;4.15;1.98;;;9.00;99.90;;;;;;5052506;28;20992;-58
2023/12/26 04:36:17;;;;;;;2.65;2.05;;;9.10;99.90;;;;;;5053221;28;20253;-58
2023/12/26 04:38:44;;;;;;;2.27;1.20;;;9.10;99.90;;;;;;5053281;28;20637;-58
2023/12/26 04:41:12;;;;;;;2.77;1.50;;;9.10;99.90;;;;;;5053469;28;20441;-57
2023/12/26 04:43:40;;;;;;;3.75;1.50;;;9.10;99.90;;;;;;5053274;28;20540;-57
2023/12/26 04:46:07;;;;;;;4.15;2.03;;;9.10;99.90;;;;;;5053107;28;20652;-56
2023/12/26 04:48:34;;;;;;;1.50;1.40;;;9.10;99.90;;;;;;5052911;28;20202;-58
2023/12/26 04:51:01;;;;;;;2.22;1.67;;;9.20;99.90;;;;;;5052969;28;20704;-57
2023/12/26 04:53:27;;;;;;;3.20;2.10;;;9.20;99.90;;;;;;5053048;28;20260;-58
2023/12/26 04:55:54;;;;;;;2.83;1.43;;;9.20;99.90;;;;;;5053046;28;20469;-55
2023/12/26 04:58:21;;;;;;;5.33;1.90;;;9.20;99.90;;;;;;5052805;28;20514;-56
2023/12/26 05:00:49;;;;;;;1.80;1.50;;;9.30;99.90;;;;;;5052842;28;20472;-57
2023/12/26 05:03:16;;;;;;;4.80;4.07;;;9.30;99.90;;;;;;5052851;28;20451;-58
2023/12/26 05:05:43;;;;;;;1.97;1.87;;;9.20;99.90;;;;;;5052819;28;20264;-53
2023/12/26 05:08:10;;;;;;;4.30;2.25;;;9.30;99.90;;;;;;5052886;28;20476;-58
2023/12/26 05:10:37;;;;;;;6.00;1.98;;;9.30;99.90;;;;;;5052729;28;20256;-58
2023/12/26 05:13:04;;;;;;;4.00;2.97;;;9.30;99.90;;;;;;5052648;28;20230;-58
2023/12/26 05:15:31;;;;;;;2.78;1.60;;;9.30;99.90;;;;;;5052453;28;20506;-57
2023/12/26 05:17:59;;;;;;;3.05;1.95;;;9.30;99.90;;;;;;5052731;28;20571;-58
2023/12/26 05:20:26;;;;;;;3.60;3.23;;;9.40;99.90;;;;;;5052491;28;20631;-57
2023/12/26 05:22:53;;;;;;;6.50;1.77;;;9.40;99.90;;;;;;5052635;28;20476;-58
2023/12/26 05:25:20;;;;;;;2.42;1.73;;;9.40;99.90;;;;;;5052404;28;20491;-55
2023/12/26 05:27:47;;;;;;;2.70;2.50;;;9.40;99.90;;;;;;5054612;28;20237;-58
2023/12/26 05:30:15;;;;;;;4.30;2.23;;;9.40;99.90;;;;;;5071998;28;20727;-58
2023/12/26 05:32:42;;;;;;;7.83;1.70;;;9.40;99.90;;;;;;5069369;28;20566;-58
2023/12/26 05:35:10;;;;;;;2.47;1.43;;;9.40;99.90;;;;;;5065494;28;20484;-56
2023/12/26 05:37:37;;;;;;;1.80;1.38;;;9.40;99.90;;;;;;5070636;28;20883;-57
2023/12/26 05:40:05;;;;;;;6.13;2.30;;;9.50;99.90;;;;;;5071946;28;20252;-58
2023/12/26 05:42:32;;;;;;;3.47;2.00;;;9.50;99.90;;;;;;5072106;28;20789;-57
2023/12/26 05:44:59;;;;;;;3.77;3.00;;;9.50;99.90;;;;;;5068472;28;20440;-53
2023/12/26 05:47:26;;;;;;;5.00;1.60;;;9.40;99.90;;;;;;5072035;28;20865;-58
2023/12/26 05:49:57;;;;;;;2.87;2.27;;;9.40;99.90;;;;;;5071923;28;20447;-58
2023/12/26 05:52:25;;;;;;;3.37;1.83;;;9.50;99.90;;;;;;5072048;28;20486;-56
2023/12/26 05:54:52;;;;;;;2.60;2.10;;;9.50;99.90;;;;;;5071891;28;20562;-57
2023/12/26 05:57:19;;;;;;;3.13;2.70;;;9.50;99.90;;;;;;5071318;28;20504;-58
2023/12/26 05:59:46;;;;;;;4.73;2.20;;;9.40;99.90;;;;;;5071892;28;20872;-57
2023/12/26 06:02:13;;;;;;;4.43;2.03;;;9.50;99.90;;;;;;5072027;28;20448;-56
2023/12/26 06:04:40;;;;;;;5.03;2.63;;;9.50;99.90;;;;;;5071720;28;20444;-55
2023/12/26 06:07:07;;;;;;;4.20;2.57;;;9.50;99.90;;;;;;5071731;28;20945;-58
2023/12/26 06:09:35;;;;;;;2.63;2.35;;;9.50;99.90;;;;;;5071455;28;20467;-57
2023/12/26 06:12:02;;;;;;;5.40;1.93;;;9.40;99.90;;;;;;5071866;28;20633;-57
2023/12/26 06:14:29;;;;;;;6.67;2.90;;;9.40;99.90;;;;;;5071881;28;20535;-58
2023/12/26 06:16:57;;;;;;;8.30;2.27;;;9.40;99.90;;;;;;5067466;22;20525;-62
2023/12/26 06:19:23;;;;;;;1.83;1.70;;;9.40;99.90;;;;;;5031030;28;20442;-62
2023/12/26 06:21:50;;;;;;;3.10;2.67;;;9.40;99.90;;;;;;5031703;28;20203;-62
2023/12/26 06:24:17;;;;;;;6.47;2.17;;;9.30;99.90;;;;;;5031530;28;20507;-62
2023/12/26 06:26:46;;;;;;;6.50;2.20;;;9.30;99.90;;;;;;5028359;28;20470;-62
2023/12/26 06:29:13;;;;;;;5.73;2.83;;;9.30;99.90;;;;;;5011869;28;20451;-62
2023/12/26 06:31:40;;;;;;;2.60;2.40;;;9.30;99.90;;;;;;5011915;28;20572;-62
2023/12/26 06:34:07;;;;;;;2.87;1.90;;;9.30;99.90;;;;;;5011914;28;20454;-61
2023/12/26 06:36:34;;;;;;;5.27;2.57;;;9.30;99.90;;;;;;5011678;28;20818;-61
2023/12/26 06:39:01;;;;;;;3.07;2.47;;;9.30;99.90;;;;;;5011873;28;20540;-62
2023/12/26 06:41:28;;;;;;;4.90;2.13;;;9.30;99.90;;;;;;5020620;28;20446;-62
2023/12/26 06:43:57;;;;;;;5.60;3.43;;;9.30;99.90;;;;;;5031642;28;20775;-62
2023/12/26 06:46:25;;;;;;;3.80;3.10;;;9.40;99.90;;;;;;5031491;28;20497;-62
2023/12/26 06:48:52;;;;;;;2.67;1.93;;;9.40;99.90;;;;;;5031120;28;20508;-62
2023/12/26 06:51:18;;;;;;;2.20;2.07;;;9.50;99.90;;;;;;5031274;28;20508;-62
2023/12/26 06:53:47;;;;;;;6.73;2.40;;;9.50;99.90;;;;;;5031391;28;20519;-62
2023/12/26 06:56:13;;;;;;;3.50;2.27;;;9.50;99.90;;;;;;5031152;28;20531;-61
2023/12/26 06:58:40;;;;;;;8.67;3.10;;;9.50;99.90;;;;;;5031176;28;20503;-62
2023/12/26 07:01:10;;;;;;;7.40;2.07;;;9.60;99.90;;;;;;5022804;28;20447;-62
2023/12/26 07:03:37;;;;;;;11.97;10.67;;;9.60;99.90;;;;;;5011338;28;20509;-62
2023/12/26 07:06:04;;;;;;;6.10;3.23;;;9.60;99.90;;;;;;5019224;28;21015;-62
2023/12/26 07:08:30;;;;;;;5.32;2.53;;;9.60;99.90;;;;;;5025933;28;20532;-62
2023/12/26 07:10:57;;;;;;;4.27;2.47;;;9.60;99.90;;;;;;5024130;28;20196;-62
2023/12/26 07:13:24;;;;;;;3.37;2.73;;;9.60;99.90;;;;;;4999320;28;20598;-62
2023/12/26 07:15:52;;;;;;;4.00;2.90;;;9.60;99.90;;;;;;4995400;28;20950;-62
2023/12/26 07:18:20;;;;;;;2.93;2.67;;;9.50;99.90;;;;;;4995034;28;20833;-62
2023/12/26 07:20:47;;;;;;;6.57;2.57;;;9.50;99.90;;;;;;4995483;28;20483;-62
2023/12/26 07:23:14;;;;;;;4.43;1.97;;;9.50;99.90;;;;;;4995618;28;20447;-62
2023/12/26 07:25:42;;;;;;;2.47;2.27;;;9.50;99.90;;;;;;4995127;28;20447;-63
2023/12/26 07:28:10;;;;;;;4.13;2.60;;;9.50;99.90;;;;;;4995175;28;20451;-62
2023/12/26 07:30:38;;;;;;;3.53;3.20;;;9.50;99.90;;;;;;4995414;28;20451;-62
2023/12/26 07:33:06;;;;;;;5.30;3.20;;;9.50;99.90;;;;;;5003689;28;20588;-61
2023/12/26 07:35:37;;;;;;;7.10;2.70;;;9.50;99.90;;;;;;5034808;28;20445;-62
2023/12/26 07:38:04;;;;;;;3.33;2.87;;;9.50;99.90;;;;;;5034519;28;20990;-62
2023/12/26 07:40:32;;;;;;;3.47;2.70;;;9.50;99.90;;;;;;5023627;28;20447;-61
2023/12/26 07:42:59;;;;;;;7.47;3.80;;;9.50;99.90;;;;;;4995755;28;20510;-61
2023/12/26 07:45:26;;;;;;;5.23;2.30;;;9.40;99.90;;;;;;4994877;28;20509;-61
2023/12/26 07:47:53;;;;;;;6.07;2.73;;;9.40;99.90;;;;;;4995140;28;20463;-62
2023/12/26 07:50:22;;;;;;;3.20;2.23;;;9.50;99.90;;;;;;4994963;28;20451;-60
2023/12/26 07:52:50;;;;;;;4.80;2.43;;;9.50;99.90;;;;;;4994859;28;20487;-62
2023/12/26 07:55:17;;;;;;;4.63;2.60;;;9.50;99.90;;;;;;4994714;28;20951;-62
2023/12/26 07:57:44;;;;;;;5.63;2.43;;;9.40;99.90;;;;;;4994719;28;20614;-62
2023/12/26 08:00:12;;;;;;;3.33;2.27;;;9.50;99.90;;;;;;4994565;28;20501;-62
2023/12/26 08:02:39;;;;;;;2.20;2.10;;;9.40;99.90;;;;;;4995077;28;20475;-62
2023/12/26 08:05:06;;;;;;;2.93;2.30;;;9.50;99.90;;;;;;4994402;28;20499;-62
2023/12/26 08:07:33;;;;;;;5.67;2.47;;;9.40;99.90;;;;;;4994684;28;20479;-62
2023/12/26 08:10:02;;;;;;;5.57;2.63;;;9.40;99.90;;;;;;4994478;28;20451;-62
2023/12/26 08:12:29;;;;;;;8.18;3.17;;;9.40;99.90;;;;;;4994536;28;21062;-62
2023/12/26 08:14:55;;;;;;;3.95;2.10;;;9.40;99.90;;;;;;5019870;28;20262;-62
2023/12/26 08:17:23;;;;;;;4.50;2.30;;;9.40;99.90;;;;;;5029894;28;20613;-62
2023/12/26 08:19:50;;;;;;;4.40;4.00;;;9.40;99.90;;;;;;5033693;28;20454;-62
2023/12/26 08:22:17;;;;;;;4.17;2.23;;;9.50;99.90;;;;;;5033675;28;20442;-62
2023/12/26 08:24:44;;;;;;;3.38;2.00;;;9.50;99.90;;;;;;5033793;28;20826;-62
2023/12/26 08:27:12;;;;;;;3.63;2.50;;;9.50;99.90;;;;;;5033341;28;20749;-61
2023/12/26 08:29:39;;;;;;;3.17;2.90;;;9.50;99.90;;;;;;5033489;28;20503;-61
2023/12/26 08:32:06;;;;;;;3.17;2.87;;;9.50;99.90;;;;;;5026465;28;20490;-62
2023/12/26 08:34:33;;;;;;;2.73;2.33;;;9.50;99.90;;;;;;4993965;28;20501;-62
2023/12/26 08:37:00;;;;;;;4.00;3.37;;;9.50;99.90;;;;;;4993983;28;20499;-62
2023/12/26 08:39:27;;;;;;;2.43;2.00;;;9.60;99.90;;;;;;4993777;28;20444;-62
2023/12/26 08:41:54;;;;;;;2.33;2.23;;;9.50;99.90;;;;;;4993858;28;20946;-62
2023/12/26 08:44:22;;;;;;;12.97;2.87;;;9.60;99.90;;;;;;4994184;28;20545;-62
2023/12/26 08:46:51;;;;;;;9.20;2.88;;;9.60;99.90;;;;;;4993917;28;20514;-62
2023/12/26 08:49:18;;;;;;;3.73;2.40;;;9.70;99.90;;;;;;5016755;28;20286;-62
2023/12/26 08:51:45;;;;;;;4.00;2.10;;;9.70;99.90;;;;;;5032190;28;20481;-63
2023/12/26 08:54:13;;;;;;;3.60;2.93;;;9.70;99.90;;;;;;5033022;28;20547;-62
2023/12/26 08:56:40;;;;;;;4.50;2.80;;;9.70;99.90;;;;;;5033233;28;20548;-61
2023/12/26 08:59:07;;;;;;;6.43;4.00;;;9.70;99.90;;;;;;5033013;28;20525;-62
2023/12/26 09:01:36;;;;;;;3.53;2.93;;;9.70;99.90;;;;;;5032991;28;20441;-62
2023/12/26 09:04:03;;;;;;;2.30;2.10;;;9.80;99.90;;;;;;5033084;28;20441;-62
2023/12/26 09:06:30;;;;;;;1.90;1.80;;;9.80;99.90;;;;;;5032739;28;20497;-62
2023/12/26 09:08:57;;;;;;;4.57;3.00;;;9.80;99.90;;;;;;5032085;28;20469;-62
2023/12/26 09:11:24;;;;;;;2.27;1.50;;;9.90;99.90;;;;;;5032783;28;20458;-62
2023/12/26 09:13:51;;;;;;;2.23;1.70;;;9.90;99.90;;;;;;5032873;28;20863;-62
2023/12/26 09:16:18;;;;;;;3.37;2.40;;;9.90;99.90;;;;;;5024910;28;20521;-62
2023/12/26 09:18:47;;;;;;;1.97;1.60;;;9.90;99.90;;;;;;5009152;28;20452;-63
2023/12/26 09:21:14;;;;;;;2.37;2.00;;;9.90;99.90;;;;;;5007290;28;20447;-62
2023/12/26 09:23:41;;;;;;;2.17;1.50;;;9.90;99.90;;;;;;5004470;28;20846;-62
2023/12/26 09:26:08;;;;;;;3.93;1.90;;;9.90;99.90;;;;;;4997144;28;20561;-62
2023/12/26 09:28:35;;;;;;;4.93;2.20;;;9.90;99.90;;;;;;5012477;28;20521;-62
2023/12/26 09:31:02;;;;;;;3.20;1.93;;;9.90;99.90;;;;;;5003499;28;20446;-62
2023/12/26 09:33:29;;;;;;;4.97;1.83;;;10.00;99.90;;;;;;5000787;28;20514;-62
2023/12/26 09:35:57;;;;;;;6.17;1.87;;;10.00;99.90;;;;;;5011262;28;20561;-62
2023/12/26 09:38:24;;;;;;;2.03;1.73;;;10.00;99.90;;;;;;4996369;28;20451;-62
2023/12/26 09:40:51;;;;;;;2.40;2.20;;;9.90;99.90;;;;;;5008457;28;20474;-62
2023/12/26 09:43:18;;;;;;;1.17;1.17;;;10.00;99.90;;;;;;5004913;28;20513;-62
2023/12/26 09:45:45;;;;;;;3.10;1.87;;;10.00;99.90;;;;;;5005034;28;20459;-62
2023/12/26 09:48:12;;;;;;;5.40;1.77;;;10.00;99.90;;;;;;5008673;28;20467;-61
2023/12/26 09:50:40;;;;;;;1.40;1.30;;;10.00;99.90;;;;;;5005681;28;20525;-62
2023/12/26 09:53:09;;;;;;;1.57;1.20;;;10.00;99.90;;;;;;5021994;28;20909;-61
2023/12/26 09:55:36;;;;;;;4.30;1.77;;;9.90;99.90;;;;;;5022443;28;20826;-62
2023/12/26 09:58:03;;;;;;;1.83;1.57;;;9.90;99.90;;;;;;5017097;28;20895;-62
2023/12/26 10:00:32;;;;;;;1.20;1.20;;;9.90;99.90;;;;;;5020323;28;20513;-62
2023/12/26 10:03:00;;;;;;;1.60;1.50;;;9.90;99.90;;;;;;5018039;28;20454;-61
2023/12/26 10:05:27;;;;;;;2.83;1.47;;;9.90;99.90;;;;;;5002628;28;20546;-62
2023/12/26 10:07:54;;;;;;;2.00;1.50;;;9.90;99.90;;;;;;5011716;28;20473;-62
2023/12/26 10:10:23;;;;;;;2.50;1.67;;;9.90;99.90;;;;;;5025505;28;20454;-61
2023/12/26 10:12:51;;;;;;;1.90;1.03;;;10.00;99.90;;;;;;5017084;28;20973;-62
2023/12/26 10:15:18;;;;;;;1.77;1.63;;;10.00;99.90;;;;;;4999157;28;20529;-62
2023/12/26 10:17:45;;;;;;;0.97;0.97;;;10.00;99.90;;;;;;5013717;28;20510;-61
2023/12/26 10:20:14;;;;;;;2.00;1.77;;;10.00;99.90;;;;;;4995463;28;21016;-62
2023/12/26 10:22:43;;;;;;;1.83;1.20;;;10.00;99.90;;;;;;5008470;28;20478;-62
2023/12/26 10:25:10;;;;;;;1.80;1.17;;;10.00;99.90;;;;;;5009888;28;20971;-61
2023/12/26 10:27:39;;;;;;;1.83;1.27;;;10.00;99.90;;;;;;4999422;28;20311;-62
2023/12/26 10:30:07;;;;;;;3.97;1.17;;;10.00;99.90;;;;;;5009725;28;20839;-62
2023/12/26 10:32:34;;;;;;;1.90;1.17;;;10.10;99.90;;;;;;4997956;28;20455;-62
2023/12/26 10:35:14;;;;;;;1.27;1.17;;;10.10;99.90;;;;;;5019250;28;20450;-62
2023/12/26 10:37:41;;;;;;;1.20;1.10;;;10.20;99.90;;;;;;5016053;28;20467;-64
2023/12/26 10:40:09;;;;;;;1.03;0.60;;;10.10;99.90;;;;;;5015196;28;20473;-61
2023/12/26 10:42:40;;;;;;;4.13;0.93;;;10.10;99.90;;;;;;5027522;28;20437;-62
2023/12/26 10:45:10;;;;;;;2.17;1.17;;;10.10;99.90;;;;;;5023013;28;20544;-62
2023/12/26 10:47:43;;;;;;;2.43;1.27;;;10.20;99.90;;;;;;5022666;28;20517;-62
2023/12/26 10:50:12;;;;;;;3.80;0.83;;;10.10;99.90;;;;;;5019080;28;20453;-62
2023/12/26 10:52:42;;;;;;;2.47;1.13;;;10.20;99.90;;;;;;5011257;28;20443;-62
2023/12/26 10:55:10;;;;;;;1.13;0.90;;;10.20;99.90;;;;;;5005750;28;20460;-62
2023/12/26 10:57:40;;;;;;;1.10;0.93;;;10.20;99.90;;;;;;5009421;28;20481;-62
2023/12/26 11:00:50;;;;;;;4.00;1.10;;;10.20;99.90;;;;;;5007585;28;20437;-63
2023/12/26 13:51:40;;;;;;;1.57;1.43;;;10.50;99.90;;;;;;5088972;28;20457;-63
2023/12/26 13:54:07;;;;;;;1.03;0.93;;;10.50;99.90;;;;;;5091458;28;20478;-62
2023/12/26 13:56:33;;;;;;;1.17;1.07;;;10.50;99.90;;;;;;5091513;28;20493;-62
2023/12/26 13:59:01;;;;;;;1.13;1.07;;;10.50;99.90;;;;;;5091784;28;20451;-63
2023/12/26 14:01:27;;;;;;;1.10;1.00;;;10.40;99.90;;;;;;5091874;28;20835;-62
2023/12/26 14:03:55;;;;;;;0.90;0.80;;;10.40;99.90;;;;;;5091684;28;20439;-62
2023/12/26 14:06:23;;;;;;;2.90;1.20;;;10.30;99.90;;;;;;5091307;28;20888;-63
2023/12/26 14:08:52;;;;;;;1.50;1.40;;;10.30;99.90;;;;;;5091109;28;20447;-63
2023/12/26 14:11:20;;;;;;;1.77;1.30;;;10.20;99.90;;;;;;5091726;28;20451;-62
2023/12/26 14:13:47;;;;;;;4.10;3.80;;;10.20;99.90;;;;;;5090201;28;20572;-62
2023/12/26 14:16:14;;;;;;;1.67;1.57;;;10.10;99.90;;;;;;5090865;28;20447;-62
2023/12/26 14:18:41;;;;;;;1.67;1.57;;;10.10;99.90;;;;;;5081486;28;20451;-62
2023/12/26 14:21:08;;;;;;;3.17;1.97;;;10.10;99.90;;;;;;5091183;28;20439;-62
2023/12/26 14:23:35;;;;;;;4.13;2.80;;;10.10;99.90;;;;;;5090984;28;20439;-63
2023/12/26 14:26:03;;;;;;;4.40;1.50;;;10.00;99.90;;;;;;5091370;28;20805;-62
2023/12/26 14:28:30;;;;;;;4.70;1.60;;;10.00;99.90;;;;;;5086107;28;20476;-63
2023/12/26 14:31:15;;;;;;;1.37;0.83;;;10.00;99.90;;;;;;5085526;28;20458;-62
2023/12/26 14:33:42;;;;;;;2.27;1.70;;;10.10;99.90;;;;;;5088819;28;20479;-62
2023/12/26 14:36:10;;;;;;;2.67;1.43;;;10.10;99.90;;;;;;5083919;28;20443;-63
2023/12/26 14:38:37;;;;;;;1.73;1.63;;;10.10;99.90;;;;;;5090731;28;20451;-62
2023/12/26 14:41:05;;;;;;;2.37;1.87;;;10.10;99.90;;;;;;5091311;28;20500;-62
2023/12/26 14:43:32;;;;;;;3.03;1.80;;;10.20;99.90;;;;;;5090880;28;20443;-63
2023/12/26 14:45:59;;;;;;;1.53;1.43;;;10.20;99.90;;;;;;5090480;28;20447;-62
2023/12/26 14:48:26;;;;;;;1.13;1.07;;;10.20;99.90;;;;;;5089619;28;20843;-62
2023/12/26 14:50:53;;;;;;;3.60;2.60;;;10.20;99.90;;;;;;5090954;28;20500;-62
2023/12/26 14:53:20;;;;;;;5.53;2.50;;;10.20;99.90;;;;;;5090284;28;20443;-61
2023/12/26 14:55:47;;;;;;;5.70;1.80;;;10.20;99.90;;;;;;5090869;28;20827;-62
2023/12/26 14:58:15;;;;;;;4.13;1.40;;;10.20;99.90;;;;;;5090133;28;20523;-62
2023/12/26 15:00:42;;;;;;;2.00;1.40;;;10.20;99.90;;;;;;5090802;28;20807;-62
2023/12/26 15:03:09;;;;;;;1.53;1.13;;;10.20;99.90;;;;;;5090753;28;20447;-62
2023/12/26 15:05:36;;;;;;;1.40;1.30;;;10.20;99.90;;;;;;5089895;28;20447;-63
2023/12/26 15:08:03;;;;;;;1.47;1.37;;;10.10;99.90;;;;;;5089991;28;20463;-62
2023/12/26 15:10:30;;;;;;;1.90;1.80;;;10.10;99.90;;;;;;5089819;28;20534;-61
2023/12/26 15:12:57;;;;;;;1.43;1.33;;;10.10;99.90;;;;;;5090320;28;20444;-62
2023/12/26 15:15:25;;;;;;;1.87;1.37;;;10.10;99.90;;;;;;5089738;28;20479;-62
2023/12/26 15:17:52;;;;;;;2.27;1.83;;;10.10;99.90;;;;;;5089591;28;20483;-62
2023/12/26 15:20:19;;;;;;;5.10;2.47;;;10.10;99.90;;;;;;5089758;28;21189;-62
2023/12/26 15:22:46;;;;;;;1.43;1.33;;;10.10;99.90;;;;;;5090384;28;20492;-62
2023/12/26 15:25:14;;;;;;;1.67;1.57;;;10.20;99.90;;;;;;5090067;28;20922;-62
2023/12/26 15:27:41;;;;;;;1.90;1.57;;;10.20;99.90;;;;;;5089738;28;20467;-62
2023/12/26 15:30:09;;;;;;;1.77;1.67;;;10.10;99.90;;;;;;5090021;28;20447;-62
2023/12/26 15:32:38;;;;;;;1.30;1.20;;;10.10;99.90;;;;;;5093891;28;20977;-62
2023/12/26 15:35:07;;;;;;;3.00;2.80;;;10.10;99.90;;;;;;5093910;28;20482;-62
2023/12/26 15:37:34;;;;;;;2.10;2.00;;;10.10;99.90;;;;;;5093182;28;21031;-63
2023/12/26 15:40:01;;;;;;;1.43;1.33;;;10.10;99.90;;;;;;5093774;28;20863;-63
2023/12/26 15:42:28;;;;;;;2.30;2.20;;;10.00;99.90;;;;;;5092573;28;20447;-62
2023/12/26 15:44:55;;;;;;;1.50;1.47;;;10.00;99.90;;;;;;5092275;28;20443;-61